Time;durP1;ratioP1;P1;durP2;ratioP2;P2;SDS_P1;SDS_P2;PMS_P1;PMS_P2;Temp;Humidity;BMP_temperature;BMP_pressure;BME280_temperature;BME280_humidity;BME280_pressure;Samples;Min_cycle;Max_cycle;Signal;HPM_P1;HPM_P2
2022/05/25 00:02:10;;;;;;;0.30;0.30;;;12.70;99.90;;;;;;5036271;28;20495;-71
2022/05/25 00:04:36;;;;;;;0.30;0.30;;;12.70;99.90;;;;;;5036519;28;20261;-71
2022/05/25 00:07:02;;;;;;;0.30;0.30;;;12.70;99.90;;;;;;5036308;28;20165;-69
2022/05/25 00:09:28;;;;;;;0.30;0.30;;;12.70;99.90;;;;;;5034987;28;20947;-69
2022/05/25 00:11:54;;;;;;;0.30;0.30;;;12.60;99.90;;;;;;5036513;28;20816;-70
2022/05/25 00:14:19;;;;;;;0.30;0.30;;;12.60;99.90;;;;;;5036161;28;20190;-71
2022/05/25 00:16:45;;;;;;;0.30;0.30;;;12.70;99.90;;;;;;5036095;28;20178;-71
2022/05/25 00:21:55;;;;;;;0.30;0.30;;;12.80;99.90;;;;;;5036078;28;20191;-70
2022/05/25 00:24:21;;;;;;;0.30;0.30;;;12.80;99.90;;;;;;5035878;28;20886;-71
2022/05/25 00:26:46;;;;;;;0.30;0.30;;;12.80;99.90;;;;;;5035994;28;20185;-71
2022/05/25 00:29:14;;;;;;;0.30;0.30;;;12.70;99.90;;;;;;5035830;28;20186;-70
2022/05/25 00:31:40;;;;;;;0.30;0.30;;;12.70;99.90;;;;;;5035861;28;20172;-69
2022/05/25 00:34:07;;;;;;;0.30;0.30;;;12.70;99.90;;;;;;5035602;28;20822;-70
2022/05/25 00:36:32;;;;;;;0.30;0.30;;;12.80;99.90;;;;;;5035987;28;20404;-69
2022/05/25 00:38:59;;;;;;;0.30;0.30;;;12.80;99.90;;;;;;5034848;28;20872;-71
2022/05/25 00:41:28;;;;;;;0.30;0.30;;;12.70;99.90;;;;;;5035564;28;20804;-69
2022/05/25 00:43:55;;;;;;;0.50;0.50;;;12.70;99.90;;;;;;5035684;28;20413;-71
2022/05/25 00:46:22;;;;;;;0.47;0.47;;;12.60;99.90;;;;;;5035730;28;20397;-69
2022/05/25 00:48:59;;;;;;;0.30;0.30;;;12.70;99.90;;;;;;5035681;28;20424;-69
2022/05/25 00:51:38;;;;;;;0.30;0.30;;;12.70;99.90;;;;;;5035642;28;20493;-69
2022/05/25 00:54:21;;;;;;;0.30;0.30;;;12.70;99.90;;;;;;5035453;28;20928;-71
2022/05/25 00:56:50;;;;;;;0.30;0.30;;;12.60;99.90;;;;;;5035543;28;20761;-68
2022/05/25 00:59:28;;;;;;;0.30;0.30;;;12.50;99.90;;;;;;5035442;28;20819;-70
2022/05/25 01:01:55;;;;;;;0.30;0.30;;;12.60;99.90;;;;;;5035309;28;20175;-71
2022/05/25 01:04:21;;;;;;;0.30;0.30;;;12.70;99.90;;;;;;5035528;28;20612;-71
2022/05/25 01:07:02;;;;;;;0.30;0.30;;;12.70;99.90;;;;;;5035362;28;20181;-68
2022/05/25 01:09:39;;;;;;;0.30;0.30;;;12.60;99.90;;;;;;5035565;28;20191;-70
2022/05/25 01:12:09;;;;;;;0.30;0.30;;;12.60;99.90;;;;;;5035372;28;20507;-68
2022/05/25 01:15:10;;;;;;;0.30;0.30;;;12.50;99.90;;;;;;5035143;28;20494;-68
2022/05/25 01:18:01;;;;;;;0.30;0.30;;;12.60;99.90;;;;;;5034917;28;20168;-69
2022/05/25 01:21:05;;;;;;;0.80;0.80;;;12.60;99.90;;;;;;5034732;28;20216;-71
2022/05/25 01:23:39;;;;;;;0.30;0.30;;;12.60;99.90;;;;;;5023765;28;20877;-70
2022/05/25 01:26:29;;;;;;;0.30;0.30;;;12.50;99.90;;;;;;5034765;28;20802;-69
2022/05/25 01:29:06;;;;;;;0.30;0.30;;;12.50;99.90;;;;;;5034686;28;20551;-70
2022/05/25 01:31:56;;;;;;;0.30;0.30;;;12.50;99.90;;;;;;5034041;28;20413;-70
2022/05/25 01:34:36;;;;;;;0.30;0.30;;;12.50;99.90;;;;;;5034445;28;20441;-69
2022/05/25 01:37:41;;;;;;;0.30;0.30;;;12.50;99.90;;;;;;5034880;28;20399;-70
2022/05/25 01:40:25;;;;;;;0.30;0.30;;;12.50;99.90;;;;;;5034578;28;20260;-68
2022/05/25 01:42:55;;;;;;;0.30;0.30;;;12.40;99.90;;;;;;5034534;28;20170;-69
2022/05/25 01:45:23;;;;;;;0.30;0.30;;;12.40;99.90;;;;;;5034549;28;20409;-70
2022/05/25 01:47:50;;;;;;;0.30;0.30;;;12.40;99.90;;;;;;5034508;28;20394;-68
2022/05/25 01:50:44;;;;;;;0.30;0.30;;;12.40;99.90;;;;;;5034188;28;20945;-71
2022/05/25 01:53:12;;;;;;;0.30;0.30;;;12.40;99.90;;;;;;5034524;28;20175;-70
2022/05/25 01:55:47;;;;;;;0.53;0.53;;;12.40;99.90;;;;;;5034414;28;20468;-69
2022/05/25 01:58:16;;;;;;;0.30;0.30;;;12.40;99.90;;;;;;5034453;28;20494;-69
2022/05/25 02:00:45;;;;;;;0.30;0.30;;;12.40;99.90;;;;;;5034222;28;20461;-70
2022/05/25 02:06:23;;;;;;;0.30;0.30;;;12.40;99.90;;;;;;5034616;28;20400;-70
2022/05/25 02:09:14;;;;;;;0.30;0.30;;;12.40;99.90;;;;;;5034164;28;20404;-71
2022/05/25 02:12:02;;;;;;;0.30;0.30;;;12.30;99.90;;;;;;5034773;28;20757;-68
2022/05/25 02:15:01;;;;;;;0.30;0.30;;;12.20;99.90;;;;;;5034179;28;20178;-69
2022/05/25 02:17:43;;;;;;;0.30;0.30;;;12.10;99.90;;;;;;5034221;28;20166;-70
2022/05/25 02:20:18;;;;;;;0.30;0.30;;;12.20;99.90;;;;;;5033619;28;20211;-68
2022/05/25 02:23:00;;;;;;;0.30;0.30;;;12.20;99.90;;;;;;5033837;28;20171;-70
2022/05/25 02:25:45;;;;;;;0.30;0.30;;;12.20;99.90;;;;;;5034011;28;20167;-68
2022/05/25 02:28:16;;;;;;;0.30;0.30;;;12.30;99.90;;;;;;5032560;28;20171;-71
2022/05/25 02:31:03;;;;;;;0.30;0.30;;;12.30;99.90;;;;;;5033688;28;20421;-70
2022/05/25 02:33:35;;;;;;;0.40;0.40;;;12.10;99.90;;;;;;5033611;28;20597;-71
2022/05/25 02:36:02;;;;;;;0.30;0.30;;;12.10;99.90;;;;;;5033790;28;20639;-70
2022/05/25 02:38:28;;;;;;;0.30;0.30;;;12.00;99.90;;;;;;5033680;28;20202;-70
2022/05/25 02:41:27;;;;;;;0.30;0.30;;;12.10;99.90;;;;;;5033427;28;20202;-69
2022/05/25 02:43:52;;;;;;;0.30;0.30;;;12.10;99.90;;;;;;5033562;28;20563;-71
2022/05/25 02:46:18;;;;;;;0.30;0.30;;;12.20;99.90;;;;;;5033480;28;20187;-71
2022/05/25 02:48:44;;;;;;;0.30;0.30;;;12.20;99.90;;;;;;5033712;28;20254;-70
2022/05/25 02:51:10;;;;;;;0.30;0.30;;;12.20;99.90;;;;;;5033361;28;20783;-68
2022/05/25 02:53:35;;;;;;;0.30;0.30;;;12.20;99.90;;;;;;5033237;28;20175;-70
2022/05/25 02:56:02;;;;;;;0.30;0.30;;;12.20;99.90;;;;;;5033469;28;20174;-69
2022/05/25 02:58:27;;;;;;;0.30;0.30;;;12.20;99.90;;;;;;5033426;28;20640;-70
2022/05/25 03:00:55;;;;;;;0.30;0.30;;;12.20;99.90;;;;;;5033296;28;20213;-69
2022/05/25 03:03:21;;;;;;;0.30;0.30;;;12.20;99.90;;;;;;5035575;28;20177;-68
2022/05/25 03:05:47;;;;;;;0.67;0.50;;;12.20;99.90;;;;;;5037448;28;20462;-69
2022/05/25 03:08:13;;;;;;;0.30;0.30;;;12.20;99.90;;;;;;5036155;28;20406;-69
2022/05/25 03:10:39;;;;;;;0.30;0.30;;;12.20;99.90;;;;;;5037523;28;20469;-71
2022/05/25 03:13:07;;;;;;;0.30;0.30;;;12.20;99.90;;;;;;5037225;28;20471;-70
2022/05/25 03:15:33;;;;;;;0.30;0.30;;;12.20;99.90;;;;;;5037380;28;20819;-70
2022/05/25 03:17:58;;;;;;;0.30;0.30;;;12.30;99.90;;;;;;5037396;28;20492;-71
2022/05/25 03:20:24;;;;;;;0.30;0.30;;;12.30;99.90;;;;;;5036848;28;20559;-71
2022/05/25 03:22:49;;;;;;;0.30;0.30;;;12.20;99.90;;;;;;5036941;28;20258;-69
2022/05/25 03:25:15;;;;;;;0.30;0.30;;;12.20;99.90;;;;;;5037146;28;20203;-69
2022/05/25 03:27:41;;;;;;;0.30;0.30;;;12.20;99.90;;;;;;5037712;28;20195;-69
2022/05/25 03:30:11;;;;;;;0.30;0.30;;;12.20;99.90;;;;;;5037020;28;20437;-69
2022/05/25 03:32:37;;;;;;;0.30;0.30;;;12.20;99.90;;;;;;5036858;28;20563;-70
2022/05/25 03:35:03;;;;;;;0.30;0.30;;;12.30;99.90;;;;;;5037035;28;20182;-70
2022/05/25 03:37:29;;;;;;;0.30;0.30;;;12.20;99.90;;;;;;5037064;28;20179;-68
2022/05/25 03:39:55;;;;;;;0.30;0.30;;;12.20;99.90;;;;;;5036680;28;20203;-69
2022/05/25 03:42:22;;;;;;;0.30;0.30;;;12.20;99.90;;;;;;5036655;28;20448;-70
2022/05/25 03:44:48;;;;;;;0.30;0.30;;;12.20;99.90;;;;;;5036855;28;20519;-70
2022/05/25 03:47:15;;;;;;;0.30;0.30;;;11.90;99.90;;;;;;5036937;28;20175;-69
2022/05/25 03:49:40;;;;;;;0.30;0.30;;;12.00;99.90;;;;;;5036794;28;20656;-71
2022/05/25 03:52:06;;;;;;;0.30;0.30;;;12.10;99.90;;;;;;5036418;28;20258;-70
2022/05/25 03:54:32;;;;;;;0.30;0.30;;;12.10;99.90;;;;;;5036643;28;20643;-68
2022/05/25 03:56:58;;;;;;;0.30;0.30;;;12.00;99.90;;;;;;5036609;28;20394;-71
2022/05/25 03:59:24;;;;;;;0.30;0.30;;;12.00;99.90;;;;;;5036562;28;20884;-69
2022/05/25 04:01:50;;;;;;;0.30;0.30;;;12.00;99.90;;;;;;5036433;28;20202;-68
2022/05/25 04:04:16;;;;;;;0.30;0.30;;;12.00;99.90;;;;;;5036395;28;20262;-69
2022/05/25 04:06:41;;;;;;;0.30;0.30;;;12.00;99.90;;;;;;5036612;28;20252;-71
2022/05/25 04:09:09;;;;;;;0.30;0.30;;;12.00;99.90;;;;;;5036267;28;20402;-68
2022/05/25 04:11:35;;;;;;;0.30;0.30;;;11.90;99.90;;;;;;5036246;28;20202;-71
2022/05/25 04:14:00;;;;;;;0.30;0.30;;;11.90;99.90;;;;;;5034899;28;20433;-69
2022/05/25 04:16:27;;;;;;;0.30;0.30;;;11.90;99.90;;;;;;5036354;28;20765;-69
2022/05/25 04:18:52;;;;;;;0.30;0.30;;;11.90;99.90;;;;;;5036070;28;20171;-71
2022/05/25 04:21:18;;;;;;;0.30;0.30;;;11.90;99.90;;;;;;5036248;28;20201;-71
2022/05/25 04:23:44;;;;;;;0.30;0.30;;;12.00;99.90;;;;;;5034691;28;20178;-70
2022/05/25 04:26:10;;;;;;;0.37;0.37;;;12.10;99.90;;;;;;5036070;28;20167;-69
2022/05/25 04:28:36;;;;;;;0.40;0.40;;;12.10;99.90;;;;;;5036545;28;20203;-70
2022/05/25 04:31:02;;;;;;;0.30;0.30;;;12.00;99.90;;;;;;5035795;28;20214;-70
2022/05/25 04:33:29;;;;;;;0.30;0.30;;;11.90;99.90;;;;;;5035718;28;20449;-70
2022/05/25 04:35:55;;;;;;;0.57;0.57;;;11.90;99.90;;;;;;5035819;28;20178;-68
2022/05/25 04:38:20;;;;;;;0.30;0.30;;;12.00;99.90;;;;;;5035801;28;20762;-68
2022/05/25 04:40:46;;;;;;;0.30;0.30;;;12.10;99.90;;;;;;5035596;28;20465;-70
2022/05/25 04:43:17;;;;;;;0.30;0.30;;;12.10;99.90;;;;;;5035580;28;20591;-69
2022/05/25 04:45:45;;;;;;;0.30;0.30;;;12.20;99.90;;;;;;5035566;28;20182;-71
2022/05/25 04:48:13;;;;;;;0.30;0.30;;;12.20;99.90;;;;;;5035724;28;20403;-71
2022/05/25 04:50:40;;;;;;;0.30;0.30;;;12.20;99.90;;;;;;5035662;28;20474;-68
2022/05/25 04:53:08;;;;;;;0.30;0.30;;;12.30;99.90;;;;;;5035406;28;20559;-70
2022/05/25 04:58:22;;;;;;;0.30;0.30;;;12.40;99.90;;;;;;5035609;28;20408;-71
2022/05/25 05:00:48;;;;;;;0.30;0.30;;;12.50;99.90;;;;;;5035163;28;20529;-68
2022/05/25 05:03:13;;;;;;;0.30;0.30;;;12.50;99.90;;;;;;5035173;28;20408;-71
2022/05/25 05:05:39;;;;;;;0.73;0.70;;;12.70;99.90;;;;;;5035345;28;20532;-70
2022/05/25 05:08:07;;;;;;;0.30;0.30;;;12.90;99.90;;;;;;5035287;28;20175;-70
2022/05/25 05:10:32;;;;;;;0.30;0.30;;;12.80;99.90;;;;;;5035121;28;20193;-70
2022/05/25 05:12:58;;;;;;;0.30;0.30;;;13.00;99.90;;;;;;5034916;28;20411;-69
2022/05/25 05:15:24;;;;;;;0.60;0.60;;;13.10;99.90;;;;;;5035055;28;20417;-69
2022/05/25 05:17:50;;;;;;;0.30;0.30;;;13.20;99.90;;;;;;5035074;28;20636;-70
2022/05/25 05:20:15;;;;;;;0.30;0.30;;;13.30;99.90;;;;;;5034675;28;20209;-69
2022/05/25 05:22:41;;;;;;;0.30;0.30;;;13.50;99.90;;;;;;5034912;28;20447;-69
2022/05/25 05:25:07;;;;;;;0.30;0.30;;;13.80;99.90;;;;;;5034594;28;20163;-71
2022/05/25 05:27:34;;;;;;;0.30;0.30;;;14.00;99.60;;;;;;5034847;28;20166;-70
2022/05/25 05:30:03;;;;;;;0.30;0.30;;;14.20;99.00;;;;;;5035137;28;20984;-69
2022/05/25 05:32:30;;;;;;;0.40;0.40;;;14.40;98.90;;;;;;5034529;28;20421;-69
2022/05/25 05:34:57;;;;;;;0.30;0.30;;;14.50;98.40;;;;;;5035063;28;20431;-71
2022/05/25 05:37:30;;;;;;;0.30;0.30;;;14.60;98.00;;;;;;5034781;28;20496;-70
2022/05/25 05:39:56;;;;;;;0.30;0.30;;;14.60;97.70;;;;;;5034653;28;20488;-71
2022/05/25 05:42:24;;;;;;;0.30;0.30;;;14.60;97.70;;;;;;5034599;28;20402;-71
2022/05/25 05:44:56;;;;;;;0.30;0.30;;;14.50;97.40;;;;;;5034718;28;20406;-69
2022/05/25 05:47:28;;;;;;;0.53;0.53;;;14.40;97.60;;;;;;5034563;28;20405;-70
2022/05/25 05:49:55;;;;;;;0.30;0.30;;;14.40;97.90;;;;;;5034529;28;20975;-69
2022/05/25 05:52:20;;;;;;;0.30;0.30;;;14.40;98.00;;;;;;5032933;28;20786;-70
2022/05/25 05:54:46;;;;;;;0.30;0.30;;;14.60;98.20;;;;;;5034444;28;20401;-69
2022/05/25 05:57:13;;;;;;;0.30;0.30;;;14.90;98.30;;;;;;5034323;28;20174;-70
2022/05/25 05:59:39;;;;;;;0.30;0.30;;;15.30;97.60;;;;;;5034132;28;20429;-69
2022/05/25 06:02:06;;;;;;;0.30;0.30;;;15.80;96.60;;;;;;5032766;28;20513;-70
2022/05/25 06:04:32;;;;;;;0.30;0.30;;;16.10;95.90;;;;;;5034443;28;20174;-71
2022/05/25 06:06:58;;;;;;;0.30;0.30;;;16.20;95.60;;;;;;5034276;28;20921;-69
2022/05/25 06:09:23;;;;;;;0.30;0.30;;;16.50;95.40;;;;;;5033937;28;20422;-71
2022/05/25 06:11:49;;;;;;;0.30;0.30;;;16.90;94.70;;;;;;5033983;28;20229;-71
2022/05/25 06:14:15;;;;;;;0.30;0.30;;;17.50;94.50;;;;;;5032629;28;20587;-71
2022/05/25 06:19:27;;;;;;;0.30;0.30;;;18.60;93.40;;;;;;5033811;28;20722;-70
2022/05/25 06:21:57;;;;;;;0.30;0.30;;;19.30;91.30;;;;;;5033718;28;21049;-69
2022/05/25 06:24:24;;;;;;;0.30;0.30;;;20.30;90.00;;;;;;5033705;28;20397;-70
2022/05/25 06:26:49;;;;;;;0.40;0.40;;;21.70;83.00;;;;;;5033835;28;20380;-70
2022/05/25 06:29:17;;;;;;;0.30;0.30;;;22.90;79.30;;;;;;5032521;28;20479;-72
2022/05/25 06:31:43;;;;;;;0.30;0.30;;;24.30;73.00;;;;;;5033745;28;20166;-71
2022/05/25 06:34:09;;;;;;;0.30;0.30;;;24.30;68.70;;;;;;5032147;28;20471;-70
2022/05/25 06:36:35;;;;;;;0.30;0.30;;;24.10;66.90;;;;;;5033310;28;20388;-71
2022/05/25 06:39:02;;;;;;;0.30;0.30;;;23.60;67.90;;;;;;5033177;28;20742;-71
2022/05/25 06:41:28;;;;;;;0.30;0.30;;;23.10;68.00;;;;;;5033922;28;20263;-72
2022/05/25 06:43:54;;;;;;;0.30;0.30;;;24.00;68.90;;;;;;5033478;28;20409;-72
2022/05/25 06:46:21;;;;;;;0.30;0.30;;;26.00;61.70;;;;;;5033744;28;20477;-69
2022/05/25 06:48:49;;;;;;;0.30;0.30;;;27.70;56.40;;;;;;5033635;28;20416;-72
2022/05/25 06:51:21;;;;;;;0.30;0.30;;;28.50;53.80;;;;;;5033643;28;20855;-72
2022/05/25 06:53:49;;;;;;;0.30;0.30;;;28.80;51.10;;;;;;5033358;28;20487;-72
2022/05/25 06:56:16;;;;;;;0.30;0.30;;;28.50;49.20;;;;;;5033576;28;20405;-72
2022/05/25 06:58:43;;;;;;;0.40;0.40;;;28.10;49.60;;;;;;5033538;28;20886;-71
2022/05/25 07:01:09;;;;;;;0.30;0.30;;;27.10;50.80;;;;;;5033300;28;20457;-70
2022/05/25 07:03:35;;;;;;;0.30;0.30;;;25.50;51.70;;;;;;5033268;28;20409;-71
2022/05/25 07:06:05;;;;;;;0.30;0.30;;;25.20;53.90;;;;;;5033254;28;20406;-71
2022/05/25 07:08:31;;;;;;;0.30;0.30;;;25.30;54.20;;;;;;5033589;28;20460;-70
2022/05/25 07:10:57;;;;;;;0.30;0.30;;;26.20;54.50;;;;;;5033121;28;20438;-71
2022/05/25 07:13:22;;;;;;;0.30;0.30;;;27.30;52.00;;;;;;5032999;28;20409;-71
2022/05/25 07:15:49;;;;;;;0.30;0.30;;;26.60;50.40;;;;;;5033299;28;20510;-70
2022/05/25 07:18:14;;;;;;;0.30;0.30;;;25.20;51.60;;;;;;5033097;28;20171;-69
2022/05/25 07:20:40;;;;;;;0.30;0.30;;;23.70;54.20;;;;;;5032868;28;20570;-72
2022/05/25 07:23:06;;;;;;;0.30;0.30;;;22.70;56.90;;;;;;5033100;28;20241;-70
2022/05/25 07:25:31;;;;;;;0.30;0.30;;;21.80;58.10;;;;;;5033262;28;20171;-71
2022/05/25 07:27:57;;;;;;;0.30;0.30;;;21.80;58.60;;;;;;5033154;28;20171;-71
2022/05/25 07:30:23;;;;;;;0.30;0.30;;;21.70;58.00;;;;;;5032916;28;20201;-71
2022/05/25 07:32:48;;;;;;;0.30;0.30;;;20.90;57.50;;;;;;5032898;28;20539;-70
2022/05/25 07:35:17;;;;;;;0.30;0.30;;;20.40;59.80;;;;;;5033335;28;20609;-71
2022/05/25 07:37:48;;;;;;;0.30;0.30;;;20.60;59.70;;;;;;5033134;28;20405;-71
2022/05/25 07:40:27;;;;;;;0.40;0.40;;;20.70;60.70;;;;;;5032793;28;20465;-69
2022/05/25 07:42:56;;;;;;;0.30;0.30;;;22.00;61.60;;;;;;5032887;28;20471;-71
2022/05/25 07:45:23;;;;;;;0.30;0.30;;;24.90;55.90;;;;;;5033380;28;20401;-71
2022/05/25 07:47:53;;;;;;;0.30;0.30;;;27.50;51.00;;;;;;5032893;28;20438;-70
2022/05/25 07:50:19;;;;;;;0.30;0.30;;;29.50;45.70;;;;;;5036769;28;20425;-71
2022/05/25 07:52:45;;;;;;;0.30;0.30;;;30.90;44.20;;;;;;5036466;28;20863;-69
2022/05/25 07:55:11;;;;;;;0.30;0.30;;;30.40;41.80;;;;;;5036752;28;20406;-72
2022/05/25 07:57:38;;;;;;;0.40;0.40;;;28.90;43.00;;;;;;5036611;28;20810;-71
2022/05/25 08:00:06;;;;;;;0.30;0.30;;;28.20;43.10;;;;;;5036553;28;20289;-71
2022/05/25 08:08:13;;;;;;;0.30;0.30;;;30.60;40.50;;;;;;5036533;28;20888;-69
2022/05/25 08:10:42;;;;;;;0.30;0.30;;;30.40;40.90;;;;;;5036405;28;20437;-72
2022/05/25 08:13:11;;;;;;;0.30;0.30;;;31.40;40.50;;;;;;5036174;28;20406;-72
2022/05/25 08:15:42;;;;;;;0.30;0.30;;;32.40;38.90;;;;;;5036330;28;20788;-71
2022/05/25 08:18:10;;;;;;;0.30;0.30;;;33.70;37.60;;;;;;5036266;28;20504;-71
2022/05/25 08:20:37;;;;;;;0.30;0.30;;;34.20;34.60;;;;;;5035791;28;20525;-69
2022/05/25 08:23:07;;;;;;;0.40;0.40;;;32.80;33.10;;;;;;5035858;28;20413;-70
2022/05/25 08:25:34;;;;;;;0.30;0.30;;;30.20;35.20;;;;;;5036026;28;20412;-72
2022/05/25 08:28:00;;;;;;;0.30;0.30;;;28.30;37.30;;;;;;5036025;28;20412;-72
2022/05/25 08:30:26;;;;;;;0.30;0.30;;;29.00;40.40;;;;;;5035921;28;20425;-68
2022/05/25 08:32:51;;;;;;;0.30;0.30;;;29.40;38.10;;;;;;5035504;28;20445;-67
2022/05/25 08:35:17;;;;;;;0.30;0.30;;;28.80;39.00;;;;;;5035627;28;20455;-68
2022/05/25 08:37:43;;;;;;;0.30;0.30;;;27.40;38.80;;;;;;5035516;28;20180;-68
2022/05/25 08:40:12;;;;;;;0.30;0.30;;;25.70;41.70;;;;;;5035354;28;20508;-67
2022/05/25 08:43:08;;;;;;;0.40;0.40;;;24.30;45.00;;;;;;5035394;28;20909;-66
2022/05/25 08:45:47;;;;;;;1.50;0.50;;;22.70;50.00;;;;;;5035629;28;20402;-70
2022/05/25 08:48:14;;;;;;;0.30;0.30;;;21.60;52.50;;;;;;5035502;28;20491;-69
2022/05/25 08:50:41;;;;;;;0.30;0.30;;;21.20;55.00;;;;;;5035412;28;20910;-71
2022/05/25 08:53:10;;;;;;;0.30;0.30;;;20.60;54.60;;;;;;5035347;28;20422;-71
2022/05/25 08:55:44;;;;;;;0.30;0.30;;;20.50;57.40;;;;;;5035576;28;20752;-71
2022/05/25 08:58:11;;;;;;;0.30;0.30;;;20.30;57.80;;;;;;5035272;28;20494;-69
2022/05/25 09:00:38;;;;;;;0.30;0.30;;;20.00;58.40;;;;;;5034292;28;20954;-71
2022/05/25 09:03:22;;;;;;;0.30;0.30;;;19.90;57.60;;;;;;5035073;28;20406;-69
2022/05/25 09:06:12;;;;;;;0.30;0.30;;;19.70;59.60;;;;;;5035610;28;20398;-71
2022/05/25 09:08:53;;;;;;;0.60;0.60;;;19.40;59.40;;;;;;5035516;28;20494;-71
2022/05/25 09:11:25;;;;;;;0.50;0.50;;;19.50;66.20;;;;;;5035344;28;20406;-70
2022/05/25 09:13:56;;;;;;;0.47;0.47;;;21.80;61.10;;;;;;5034996;28;20924;-72
2022/05/25 09:16:24;;;;;;;0.30;0.30;;;23.80;53.70;;;;;;5035754;28;20467;-70
2022/05/25 09:19:00;;;;;;;0.30;0.30;;;25.30;49.50;;;;;;5035067;28;20406;-71
2022/05/25 09:21:31;;;;;;;0.30;0.30;;;26.30;48.20;;;;;;5034890;28;20437;-69
2022/05/25 09:24:00;;;;;;;0.30;0.30;;;27.20;49.50;;;;;;5034844;28;20475;-71
2022/05/25 09:26:26;;;;;;;0.40;0.40;;;27.40;45.20;;;;;;5034956;28;20493;-69
2022/05/25 09:28:58;;;;;;;0.30;0.30;;;26.60;44.70;;;;;;5034936;28;20937;-71
2022/05/25 09:31:31;;;;;;;0.30;0.30;;;25.10;46.80;;;;;;5034809;28;20174;-69
2022/05/25 09:34:01;;;;;;;0.30;0.30;;;23.20;49.30;;;;;;5034555;28;20414;-68
2022/05/25 09:37:08;;;;;;;0.30;0.30;;;22.00;52.70;;;;;;5034677;28;20448;-70
2022/05/25 09:39:39;;;;;;;0.40;0.40;;;21.20;53.20;;;;;;5023924;28;20443;-71
2022/05/25 09:42:06;;;;;;;0.30;0.30;;;20.40;57.00;;;;;;5034609;28;20437;-70
2022/05/25 09:44:33;;;;;;;0.30;0.30;;;19.80;54.70;;;;;;5034675;28;20484;-71
2022/05/25 09:47:05;;;;;;;0.30;0.30;;;19.50;56.40;;;;;;5034528;28;20420;-71
2022/05/25 09:49:34;;;;;;;0.30;0.30;;;19.20;57.70;;;;;;5034391;28;20428;-70
2022/05/25 09:52:04;;;;;;;0.30;0.30;;;18.90;58.20;;;;;;5034233;28;20521;-68
2022/05/25 09:54:39;;;;;;;0.30;0.30;;;18.70;59.70;;;;;;5034555;28;20422;-70
2022/05/25 09:57:13;;;;;;;0.30;0.30;;;18.60;59.00;;;;;;5034546;28;20437;-69
2022/05/25 09:59:52;;;;;;;0.30;0.30;;;18.90;59.90;;;;;;5033902;28;20431;-70
2022/05/25 10:02:18;;;;;;;0.30;0.30;;;19.90;59.80;;;;;;5034137;28;20535;-69
2022/05/25 10:04:53;;;;;;;0.30;0.30;;;21.20;56.50;;;;;;5034293;28;20519;-70
2022/05/25 10:07:48;;;;;;;0.30;0.30;;;22.30;53.50;;;;;;5034307;28;20177;-70
2022/05/25 10:10:13;;;;;;;0.30;0.30;;;22.20;52.20;;;;;;5033994;28;20446;-71
2022/05/25 10:12:39;;;;;;;0.30;0.30;;;21.50;54.60;;;;;;5033758;28;20429;-70
2022/05/25 10:15:08;;;;;;;0.30;0.30;;;19.60;55.40;;;;;;5034047;28;20653;-70
2022/05/25 10:17:48;;;;;;;0.30;0.30;;;19.00;60.20;;;;;;5033885;28;20528;-71
2022/05/25 10:20:30;;;;;;;0.30;0.30;;;18.80;64.90;;;;;;5033584;28;20884;-70
2022/05/25 10:23:18;;;;;;;0.40;0.40;;;18.40;60.40;;;;;;5033802;28;20404;-70
2022/05/25 10:25:47;;;;;;;0.30;0.30;;;18.50;64.80;;;;;;5033944;28;20395;-70
2022/05/25 10:28:36;;;;;;;0.30;0.30;;;18.70;64.50;;;;;;5033707;28;20429;-71
2022/05/25 10:37:06;;;;;;;0.30;0.30;;;18.80;62.90;;;;;;5034040;28;20770;-70
2022/05/25 10:39:40;;;;;;;0.30;0.30;;;18.70;64.20;;;;;;5032412;28;20447;-69
2022/05/25 10:42:32;;;;;;;0.30;0.30;;;18.70;64.60;;;;;;5033344;28;20195;-71
2022/05/25 10:45:24;;;;;;;0.30;0.30;;;18.80;66.20;;;;;;5033822;28;20490;-69
2022/05/25 10:47:52;;;;;;;0.30;0.30;;;18.90;64.00;;;;;;5033790;28;20407;-71
2022/05/25 10:50:24;;;;;;;0.30;0.30;;;19.00;67.40;;;;;;5033464;28;20437;-71
2022/05/25 10:53:02;;;;;;;0.30;0.30;;;18.80;63.90;;;;;;5033272;28;20912;-71
2022/05/25 10:55:37;;;;;;;0.30;0.30;;;18.70;62.60;;;;;;5032226;28;20418;-71
2022/05/25 10:58:11;;;;;;;0.30;0.30;;;18.90;69.20;;;;;;5033693;28;20412;-71
2022/05/25 11:00:50;;;;;;;0.30;0.30;;;19.50;64.50;;;;;;5033200;28;20455;-71
2022/05/25 11:03:24;;;;;;;0.30;0.30;;;20.10;61.40;;;;;;5033381;28;20417;-70
2022/05/25 11:06:17;;;;;;;0.30;0.30;;;20.20;57.00;;;;;;5033587;28;20459;-70
2022/05/25 11:09:16;;;;;;;0.30;0.30;;;20.00;58.10;;;;;;5033580;28;20404;-70
2022/05/25 11:12:14;;;;;;;0.30;0.30;;;19.60;57.30;;;;;;5033554;28;20439;-70
2022/05/25 11:14:49;;;;;;;0.30;0.30;;;19.90;59.50;;;;;;5023003;28;20519;-71
2022/05/25 11:17:52;;;;;;;0.30;0.30;;;20.00;59.20;;;;;;5033503;28;20771;-69
2022/05/25 11:20:37;;;;;;;0.30;0.30;;;20.00;56.30;;;;;;5032930;28;20467;-70
2022/05/25 11:23:23;;;;;;;0.30;0.30;;;20.00;56.40;;;;;;5033332;28;20769;-70
2022/05/25 11:26:13;;;;;;;0.30;0.30;;;20.30;59.10;;;;;;5037157;28;20471;-68
2022/05/25 11:28:39;;;;;;;0.30;0.30;;;20.30;57.30;;;;;;5037383;28;20425;-69
2022/05/25 11:31:47;;;;;;;0.30;0.30;;;20.20;61.40;;;;;;5037130;28;20435;-69
2022/05/25 11:34:53;;;;;;;0.30;0.30;;;19.90;59.00;;;;;;5036964;28;20334;-71
2022/05/25 11:37:50;;;;;;;0.30;0.30;;;20.00;63.60;;;;;;5037186;28;20400;-69
2022/05/25 11:41:07;;;;;;;0.30;0.30;;;20.00;58.50;;;;;;5036772;28;20456;-69
2022/05/25 11:43:38;;;;;;;0.50;0.50;;;20.20;59.30;;;;;;5035283;28;20425;-71
2022/05/25 11:46:41;;;;;;;0.30;0.30;;;20.40;56.80;;;;;;5035642;28;20417;-71
2022/05/25 11:49:18;;;;;;;0.30;0.30;;;20.80;59.70;;;;;;5036621;28;20812;-71
2022/05/25 11:52:12;;;;;;;0.30;0.30;;;20.80;58.90;;;;;;5036697;28;20480;-71
2022/05/25 11:55:03;;;;;;;0.30;0.30;;;20.40;58.90;;;;;;5036856;28;20456;-70
2022/05/25 11:57:39;;;;;;;0.30;0.30;;;20.20;60.90;;;;;;5036747;28;20539;-71
2022/05/25 12:00:17;;;;;;;0.30;0.30;;;19.90;59.10;;;;;;5036566;28;20464;-71
2022/05/25 12:02:48;;;;;;;0.30;0.30;;;19.50;58.50;;;;;;5036520;28;20431;-70
2022/05/25 12:05:49;;;;;;;0.60;0.60;;;19.30;62.00;;;;;;5036596;28;20426;-70
2022/05/25 12:08:26;;;;;;;0.30;0.30;;;19.40;64.20;;;;;;5036656;28;20396;-69
2022/05/25 12:11:20;;;;;;;0.30;0.30;;;19.70;61.10;;;;;;5036180;28;20944;-71
2022/05/25 12:13:49;;;;;;;0.30;0.30;;;19.90;59.00;;;;;;5036093;28;20763;-70
2022/05/25 12:16:22;;;;;;;0.30;0.30;;;20.20;59.20;;;;;;5036200;28;20396;-70
2022/05/25 12:19:12;;;;;;;0.30;0.30;;;20.10;57.50;;;;;;5036233;28;20398;-71
2022/05/25 12:21:55;;;;;;;0.40;0.40;;;20.40;57.60;;;;;;5036155;28;20453;-71
2022/05/25 12:24:37;;;;;;;0.30;0.30;;;20.40;58.50;;;;;;5036090;28;20454;-70
2022/05/25 12:27:06;;;;;;;0.30;0.30;;;20.20;59.20;;;;;;5036122;28;20508;-69
2022/05/25 12:29:37;;;;;;;0.30;0.30;;;20.40;58.40;;;;;;5035926;28;21015;-70
2022/05/25 12:32:04;;;;;;;0.30;0.30;;;20.40;56.20;;;;;;5035642;28;20409;-70
2022/05/25 12:34:37;;;;;;;0.30;0.30;;;20.30;55.90;;;;;;5035424;28;20881;-70
2022/05/25 12:37:05;;;;;;;0.30;0.30;;;20.60;58.00;;;;;;5035605;28;20918;-71
2022/05/25 12:39:43;;;;;;;0.30;0.30;;;20.90;58.50;;;;;;5035771;28;20835;-71
2022/05/25 12:42:23;;;;;;;0.30;0.30;;;20.80;57.00;;;;;;5035515;28;20452;-71
2022/05/25 12:50:57;;;;;;;0.30;0.30;;;20.70;59.90;;;;;;5035562;28;20417;-70
2022/05/25 12:53:42;;;;;;;0.30;0.30;;;20.70;57.00;;;;;;5035426;28;20419;-70
2022/05/25 12:56:30;;;;;;;0.30;0.30;;;21.00;58.50;;;;;;5034274;28;20418;-71
2022/05/25 12:59:09;;;;;;;0.30;0.30;;;21.20;55.80;;;;;;5035087;28;20421;-69
2022/05/25 13:01:40;;;;;;;0.30;0.30;;;21.30;54.30;;;;;;5035315;28;20597;-69
2022/05/25 13:04:09;;;;;;;0.40;0.40;;;21.10;53.60;;;;;;5035171;28;20476;-70
2022/05/25 13:06:38;;;;;;;0.30;0.30;;;21.10;56.20;;;;;;5034086;28;20398;-70
2022/05/25 13:09:24;;;;;;;0.40;0.40;;;21.20;54.20;;;;;;5035083;28;20434;-71
2022/05/25 13:11:53;;;;;;;0.30;0.30;;;21.10;53.50;;;;;;5035225;28;20418;-69
2022/05/25 13:14:22;;;;;;;0.30;0.30;;;21.10;55.00;;;;;;5035059;28;20424;-70
2022/05/25 13:17:00;;;;;;;0.30;0.30;;;21.00;51.40;;;;;;5035201;28;20415;-70
2022/05/25 13:19:31;;;;;;;0.30;0.30;;;21.00;54.20;;;;;;5034873;28;20456;-69
2022/05/25 13:22:04;;;;;;;0.30;0.30;;;20.80;50.50;;;;;;5034821;28;20450;-71
2022/05/25 13:24:50;;;;;;;0.30;0.30;;;20.80;52.80;;;;;;5035228;28;20483;-70
2022/05/25 13:27:16;;;;;;;0.30;0.30;;;20.60;49.80;;;;;;5034890;28;20424;-70
2022/05/25 13:29:51;;;;;;;0.30;0.30;;;20.50;51.60;;;;;;5034855;28;20425;-69
2022/05/25 13:32:52;;;;;;;0.30;0.30;;;20.60;51.20;;;;;;5034878;28;20151;-70
2022/05/25 13:35:20;;;;;;;0.30;0.30;;;20.80;50.20;;;;;;5035151;28;20890;-69
2022/05/25 13:37:54;;;;;;;0.30;0.30;;;20.90;52.00;;;;;;5034923;28;20405;-71
2022/05/25 13:40:24;;;;;;;0.30;0.30;;;20.70;50.90;;;;;;5034578;28;20457;-69
2022/05/25 13:42:51;;;;;;;0.30;0.30;;;20.20;48.50;;;;;;5034595;28;20404;-69
2022/05/25 13:45:28;;;;;;;0.30;0.30;;;20.20;50.40;;;;;;5034779;28;20436;-71